Time;durP1;ratioP1;P1;durP2;ratioP2;P2;SDS_P1;SDS_P2;PMS_P1;PMS_P2;Temp;Humidity;BMP_temperature;BMP_pressure;BME280_temperature;BME280_humidity;BME280_pressure;Samples;Min_cycle;Max_cycle;Signal;HPM_P1;HPM_P2
2023/09/15 00:02:43;;;;;;;13.95;8.45;;;;;;;21.23;86.23;65216.72;5053083;28;20209;-54
2023/09/15 00:05:10;;;;;;;10.38;8.07;;;;;;;21.14;86.72;65211.91;5035507;28;20197;-58
2023/09/15 00:07:36;;;;;;;10.65;7.70;;;;;;;21.14;86.29;65209.34;5053086;28;20205;-55
2023/09/15 00:10:04;;;;;;;10.25;7.95;;;;;;;21.15;86.75;65213.00;5053233;28;20205;-55
2023/09/15 00:12:30;;;;;;;9.63;7.90;;;;;;;21.14;85.81;65211.91;5052990;28;20205;-54
2023/09/15 00:14:55;;;;;;;11.73;7.72;;;;;;;21.03;86.13;65199.19;5052883;28;20259;-54
2023/09/15 00:17:21;;;;;;;10.88;7.78;;;;;;;20.91;86.49;65183.88;5053444;28;20209;-54
2023/09/15 00:19:46;;;;;;;9.90;8.05;;;;;;;20.72;88.07;65163.44;5051751;28;20671;-54
2023/09/15 00:22:12;;;;;;;11.23;8.00;;;;;;;20.86;87.95;65175.78;5053144;28;20232;-55
2023/09/15 00:24:40;;;;;;;11.70;7.60;;;;;;;20.88;88.21;65183.13;5035493;28;20295;-57
2023/09/15 00:27:05;;;;;;;11.57;8.15;;;;;;;20.80;88.75;65172.28;5053192;28;20263;-54
2023/09/15 00:29:31;;;;;;;11.60;8.25;;;;;;;20.95;88.31;65187.75;5052855;28;20197;-54
2023/09/15 00:31:56;;;;;;;13.20;7.43;;;;;;;21.00;87.92;65193.84;5052852;28;20574;-55
2023/09/15 00:34:22;;;;;;;9.00;7.82;;;;;;;20.89;87.90;65184.78;5052936;28;20240;-58
2023/09/15 00:36:49;;;;;;;8.70;7.30;;;;;;;20.88;88.53;65181.13;5053214;28;20588;-57
2023/09/15 00:39:14;;;;;;;11.73;8.13;;;;;;;20.83;88.28;65175.59;5052500;28;20217;-55
2023/09/15 00:41:40;;;;;;;9.13;7.70;;;;;;;20.82;88.92;65176.50;5052859;28;20255;-55
2023/09/15 00:44:05;;;;;;;11.98;8.27;;;;;;;20.81;89.55;65175.38;5051939;28;20295;-55
2023/09/15 00:46:31;;;;;;;9.15;8.25;;;;;;;20.64;90.49;65154.03;5051791;28;20205;-55
2023/09/15 00:48:58;;;;;;;11.07;8.55;;;;;;;20.58;91.25;65147.41;5051287;28;20235;-53
2023/09/15 00:51:25;;;;;;;13.68;7.93;;;;;;;20.56;91.35;65148.28;5051670;28;20197;-54
2023/09/15 00:53:51;;;;;;;13.88;8.43;;;;;;;20.60;90.73;65149.63;5034487;28;20302;-55
2023/09/15 00:56:17;;;;;;;10.60;8.73;;;;;;;20.65;91.10;65155.69;5052394;28;20646;-55
2023/09/15 00:58:46;;;;;;;10.23;8.40;;;;;;;20.54;91.04;65143.00;5052541;28;20197;-54
2023/09/15 01:01:13;;;;;;;11.27;8.40;;;;;;;20.49;91.59;65137.44;5034424;28;20248;-54
2023/09/15 01:03:41;;;;;;;10.43;8.90;;;;;;;20.54;91.20;65145.56;5052500;28;20251;-55
2023/09/15 01:06:08;;;;;;;12.95;8.75;;;;;;;20.49;91.93;65137.44;5052134;28;20198;-54
2023/09/15 01:08:34;;;;;;;11.52;8.45;;;;;;;20.55;92.17;65144.09;5052284;28;20710;-53
2023/09/15 01:11:04;;;;;;;12.68;8.05;;;;;;;20.53;91.03;65142.44;5052529;28;20205;-54
2023/09/15 01:13:32;;;;;;;13.93;9.07;;;;;;;20.49;91.40;65140.00;5052124;28;20695;-54
2023/09/15 01:16:12;;;;;;;14.05;9.05;;;;;;;20.47;91.96;65135.25;5052395;28;20194;-54
2023/09/15 01:18:59;;;;;;;13.80;8.52;;;;;;;20.44;92.36;65131.94;5052349;28;20200;-54
2023/09/15 01:21:45;;;;;;;12.50;9.13;;;;;;;20.48;91.55;65139.47;5052321;28;20225;-54
2023/09/15 01:24:29;;;;;;;10.98;8.25;;;;;;;20.55;91.92;65144.09;5052199;28;20194;-54
2023/09/15 01:27:20;;;;;;;11.30;9.00;;;;;;;20.58;91.55;65149.97;5051861;28;20210;-55
2023/09/15 01:29:59;;;;;;;13.25;8.52;;;;;;;20.63;91.32;65152.94;5052314;28;20205;-57
2023/09/15 01:32:25;;;;;;;13.00;8.93;;;;;;;20.58;91.73;65145.38;5052041;28;20217;-54
2023/09/15 01:34:52;;;;;;;9.88;8.40;;;;;;;20.49;91.80;65142.56;5051832;28;20201;-54
2023/09/15 01:37:19;;;;;;;11.48;8.73;;;;;;;20.45;91.94;65133.03;5051471;28;20213;-54
2023/09/15 01:39:46;;;;;;;11.75;9.43;;;;;;;20.48;92.11;65136.34;5051677;28;20308;-54
2023/09/15 01:42:13;;;;;;;12.65;8.93;;;;;;;20.58;91.83;65144.84;5051198;28;20289;-55
2023/09/15 01:44:39;;;;;;;9.73;8.82;;;;;;;20.58;91.29;65150.50;5051288;28;20205;-53
2023/09/15 01:47:09;;;;;;;13.18;8.98;;;;;;;20.58;91.17;65149.97;5051506;28;20263;-57
2023/09/15 01:49:37;;;;;;;10.98;8.70;;;;;;;20.65;90.28;65155.13;5050481;28;20220;-53
2023/09/15 01:52:04;;;;;;;11.23;9.07;;;;;;;20.59;91.49;65149.06;5051927;28;20205;-54
2023/09/15 01:54:29;;;;;;;9.25;8.30;;;;;;;20.53;91.54;65141.88;5051581;28;20197;-54
2023/09/15 01:56:55;;;;;;;11.18;8.90;;;;;;;20.51;91.41;65137.09;5051603;28;20304;-54
2023/09/15 01:59:20;;;;;;;11.73;8.48;;;;;;;20.49;91.62;65137.44;5051604;28;20206;-54
2023/09/15 02:01:47;;;;;;;11.13;9.10;;;;;;;20.28;92.33;65114.25;5051338;28;20213;-54
2023/09/15 02:04:12;;;;;;;10.57;8.73;;;;;;;20.27;92.40;65113.69;5051466;28;20197;-55
2023/09/15 02:06:37;;;;;;;10.90;8.45;;;;;;;20.28;93.27;65116.81;5051313;28;20217;-55
2023/09/15 02:09:04;;;;;;;11.00;8.60;;;;;;;20.27;93.00;65111.16;5051477;28;20194;-54
2023/09/15 02:11:30;;;;;;;12.13;9.13;;;;;;;20.29;93.51;65117.91;5051524;28;20300;-54
2023/09/15 02:13:55;;;;;;;14.75;9.05;;;;;;;20.21;93.69;65107.06;5051480;28;20339;-53
2023/09/15 02:16:21;;;;;;;11.18;8.57;;;;;;;20.17;93.35;65102.06;5050284;28;20588;-54
2023/09/15 02:18:47;;;;;;;12.20;9.38;;;;;;;20.24;93.66;65110.38;5051096;28;20224;-53
2023/09/15 02:21:12;;;;;;;9.93;8.90;;;;;;;20.09;93.55;65096.34;5051309;28;20240;-54
2023/09/15 02:23:38;;;;;;;10.45;9.30;;;;;;;20.03;93.91;65084.59;5049962;28;20586;-55
2023/09/15 02:26:05;;;;;;;11.35;8.85;;;;;;;20.15;94.31;65099.88;5051159;28;20292;-55
2023/09/15 02:28:32;;;;;;;10.82;9.50;;;;;;;20.06;94.88;65091.03;5051167;28;20197;-57
2023/09/15 02:30:57;;;;;;;11.57;9.13;;;;;;;20.05;94.77;65087.38;5051137;28;20296;-53
2023/09/15 02:33:24;;;;;;;20.58;16.48;;;;;;;19.97;95.14;65081.09;5077072;22;20304;-54
2023/09/15 02:35:51;;;;;;;14.75;11.18;;;;;;;19.80;95.85;65061.75;5071238;28;20258;-54
2023/09/15 02:38:16;;;;;;;12.13;9.75;;;;;;;19.83;96.05;65065.63;5049565;28;20301;-53
2023/09/15 02:40:42;;;;;;;13.10;10.00;;;;;;;19.76;96.60;65054.78;5050723;28;20312;-58
2023/09/15 02:43:11;;;;;;;10.80;9.40;;;;;;;19.64;97.36;65046.66;5050989;28;20675;-54
2023/09/15 02:45:37;;;;;;;11.75;9.23;;;;;;;19.66;97.72;65046.28;5051234;28;20213;-54
2023/09/15 02:48:03;;;;;;;10.93;9.45;;;;;;;19.65;97.68;65045.75;5032938;28;20296;-54
2023/09/15 02:50:29;;;;;;;12.98;9.13;;;;;;;19.69;97.65;65050.19;5050717;28;20208;-54
2023/09/15 02:52:55;;;;;;;14.85;10.18;;;;;;;19.66;98.08;65049.41;5050959;28;20214;-54
2023/09/15 02:55:21;;;;;;;24.70;17.08;;;;;;;19.56;98.68;65033.25;5032835;28;20205;-54
2023/09/15 02:57:49;;;;;;;13.02;9.95;;;;;;;19.54;98.99;65035.59;5032923;28;20217;-55
2023/09/15 03:00:16;;;;;;;13.38;10.10;;;;;;;19.43;99.67;65021.47;5032866;28;20584;-53
2023/09/15 03:02:43;;;;;;;14.40;9.73;;;;;;;19.48;99.57;65026.41;5050563;28;20213;-54
2023/09/15 03:05:09;;;;;;;10.95;9.15;;;;;;;19.37;100.00;65017.41;5050670;28;20209;-54
2023/09/15 03:07:39;;;;;;;11.63;10.18;;;;;;;19.40;100.00;65020.69;5050510;28;20209;-54
2023/09/15 03:10:09;;;;;;;14.65;9.38;;;;;;;19.41;100.00;65019.25;5050835;28;20197;-55
2023/09/15 03:12:35;;;;;;;11.85;10.20;;;;;;;19.36;100.00;65015.72;5050701;28;20216;-55
2023/09/15 03:15:06;;;;;;;13.35;10.35;;;;;;;19.38;100.00;65015.94;5050444;28;20336;-54
2023/09/15 03:17:33;;;;;;;14.27;10.55;;;;;;;19.32;100.00;65008.72;5050978;28;20216;-53
2023/09/15 03:19:58;;;;;;;14.75;10.27;;;;;;;19.33;100.00;65012.97;5050627;28;20320;-53
2023/09/15 03:22:24;;;;;;;13.75;9.20;;;;;;;19.27;100.00;65006.31;5032408;28;20626;-56
2023/09/15 03:24:50;;;;;;;11.75;9.45;;;;;;;19.32;100.00;65008.72;5050506;28;20193;-54
2023/09/15 03:27:15;;;;;;;14.05;9.60;;;;;;;19.33;100.00;65012.97;5050278;28;20733;-53
2023/09/15 03:29:41;;;;;;;11.02;9.82;;;;;;;19.23;100.00;64999.34;5050380;28;20251;-54
2023/09/15 03:32:07;;;;;;;11.52;9.60;;;;;;;19.21;100.00;64999.69;5050803;28;20629;-54
2023/09/15 03:34:32;;;;;;;15.00;10.13;;;;;;;19.26;100.00;65003.22;5050246;28;20193;-55
2023/09/15 03:37:01;;;;;;;12.23;9.40;;;;;;;19.26;100.00;65003.22;5050486;28;20299;-55
2023/09/15 03:39:27;;;;;;;12.80;9.70;;;;;;;19.16;100.00;64991.63;5050307;28;20247;-54
2023/09/15 03:41:52;;;;;;;11.48;8.93;;;;;;;19.27;100.00;65006.31;5050442;28;20237;-54
2023/09/15 03:44:19;;;;;;;9.93;8.27;;;;;;;19.31;100.00;65005.63;5050300;28;20668;-54
2023/09/15 03:46:44;;;;;;;14.07;9.65;;;;;;;19.31;100.00;65010.72;5050090;28;20206;-58
2023/09/15 03:49:11;;;;;;;13.82;8.75;;;;;;;19.35;100.00;65012.63;5050157;28;20220;-54
2023/09/15 03:51:36;;;;;;;12.88;9.32;;;;;;;19.27;99.64;65006.88;5050036;28;20640;-54
2023/09/15 03:54:02;;;;;;;13.18;8.90;;;;;;;19.28;99.51;65007.44;5049952;28;20193;-55
2023/09/15 03:56:28;;;;;;;10.95;9.02;;;;;;;19.33;98.77;65012.41;5060980;22;20706;-54
2023/09/15 03:58:55;;;;;;;11.20;8.73;;;;;;;19.29;98.90;65009.09;5069764;28;20209;-54
2023/09/15 04:01:23;;;;;;;13.20;8.80;;;;;;;19.35;98.29;65015.19;5048175;28;20225;-55
2023/09/15 04:03:49;;;;;;;12.77;8.13;;;;;;;19.26;98.78;65005.78;5049916;28;20280;-60
2023/09/15 04:06:16;;;;;;;13.40;8.45;;;;;;;19.21;98.48;64997.13;5050135;28;20301;-55
2023/09/15 04:08:42;;;;;;;9.63;8.10;;;;;;;19.25;98.64;64999.00;5050110;28;20220;-55
2023/09/15 04:11:08;;;;;;;11.63;8.32;;;;;;;19.17;98.25;64995.28;5049755;28;20200;-55
2023/09/15 04:13:34;;;;;;;9.35;7.18;;;;;;;19.21;97.90;64997.69;5049884;28;20593;-55
2023/09/15 04:16:00;;;;;;;12.63;7.57;;;;;;;19.23;97.56;65001.91;5049612;28;20197;-61
2023/09/15 04:18:33;;;;;;;15.00;8.10;;;;;;;19.11;98.24;64986.66;5049817;28;20285;-55
2023/09/15 04:20:58;;;;;;;12.23;7.47;;;;;;;19.12;98.42;64987.22;5049497;28;20244;-55
2023/09/15 04:23:25;;;;;;;12.98;8.00;;;;;;;19.02;98.61;64979.28;5049595;28;20528;-54
2023/09/15 04:25:52;;;;;;;12.00;8.38;;;;;;;19.06;98.76;64980.59;5049617;28;20181;-59
2023/09/15 04:28:18;;;;;;;10.20;7.72;;;;;;;19.13;98.24;64988.88;5031827;28;20204;-55
2023/09/15 04:30:44;;;;;;;8.95;7.47;;;;;;;19.09;98.50;64983.91;5049631;28;20591;-59
2023/09/15 04:33:09;;;;;;;10.90;8.23;;;;;;;19.13;98.51;64990.88;5049480;28;20228;-55
2023/09/15 04:35:36;;;;;;;10.32;7.30;;;;;;;19.08;98.74;64983.34;5031769;28;20205;-54
2023/09/15 04:38:02;;;;;;;10.45;7.43;;;;;;;19.09;99.06;64984.44;5031582;28;20295;-54
2023/09/15 04:40:28;;;;;;;12.75;8.88;;;;;;;19.15;99.10;64990.50;5032894;28;20322;-55
2023/09/15 04:42:53;;;;;;;11.65;7.90;;;;;;;19.16;98.92;64992.19;5052822;28;20722;-58
2023/09/15 04:45:26;;;;;;;8.50;7.43;;;;;;;19.16;99.00;64992.19;5034875;28;20193;-57
2023/09/15 04:47:51;;;;;;;11.30;7.10;;;;;;;19.18;98.48;64996.94;5051541;28;20253;-56
2023/09/15 04:50:16;;;;;;;8.77;7.25;;;;;;;19.19;99.00;64997.50;5052798;28;20280;-60
2023/09/15 04:52:42;;;;;;;12.48;7.70;;;;;;;19.16;98.83;64991.63;5052454;28;20702;-54
2023/09/15 04:55:08;;;;;;;14.18;8.88;;;;;;;19.08;99.40;64987.91;5052774;28;20253;-55
2023/09/15 04:57:34;;;;;;;11.52;7.97;;;;;;;19.10;99.47;64985.00;5052369;28;20220;-56
2023/09/15 05:00:01;;;;;;;11.57;7.55;;;;;;;19.20;99.14;64998.59;5052713;28;20205;-57
2023/09/15 05:02:30;;;;;;;8.90;7.32;;;;;;;19.19;98.88;64997.50;5052382;28;20205;-55
2023/09/15 05:04:55;;;;;;;10.30;8.25;;;;;;;19.39;98.40;65016.50;5051148;28;20288;-54
2023/09/15 05:07:21;;;;;;;9.60;7.47;;;;;;;19.41;98.09;65018.69;5034719;28;20307;-55
2023/09/15 05:09:47;;;;;;;9.32;7.28;;;;;;;19.53;98.06;65032.50;5034913;28;20210;-54
2023/09/15 05:12:16;;;;;;;7.68;6.88;;;;;;;19.82;96.07;65064.53;5052296;28;20209;-56
2023/09/15 05:14:42;;;;;;;15.93;8.93;;;;;;;19.57;96.64;65036.94;5052302;28;20289;-55
2023/09/15 05:17:08;;;;;;;11.57;8.25;;;;;;;19.48;98.14;65023.88;5052824;28;20208;-54
2023/09/15 05:19:33;;;;;;;12.40;7.93;;;;;;;19.57;98.24;65036.94;5052294;28;20264;-55
2023/09/15 05:22:00;;;;;;;11.07;7.43;;;;;;;19.57;96.55;65039.47;5052653;28;20733;-61
2023/09/15 05:24:25;;;;;;;13.82;8.15;;;;;;;19.46;97.41;65027.31;5052558;28;20210;-55
2023/09/15 05:26:52;;;;;;;11.20;8.07;;;;;;;19.62;96.87;65045.00;5052504;28;20208;-57
2023/09/15 05:29:17;;;;;;;10.48;7.80;;;;;;;19.67;96.68;65050.53;5052114;28;20220;-55
2023/09/15 05:31:43;;;;;;;9.15;7.72;;;;;;;19.55;97.76;65034.16;5052408;28;20213;-55
2023/09/15 05:34:09;;;;;;;10.82;8.60;;;;;;;19.44;98.70;65024.56;5052453;28;20197;-54
2023/09/15 05:36:35;;;;;;;9.98;8.25;;;;;;;19.42;99.15;65019.78;5034402;28;20263;-55
2023/09/15 05:39:01;;;;;;;10.55;7.35;;;;;;;19.42;99.51;65020.34;5052153;28;20244;-54
2023/09/15 05:41:26;;;;;;;15.13;9.10;;;;;;;19.36;100.00;65013.72;5051905;28;20237;-54
2023/09/15 05:43:52;;;;;;;11.68;8.52;;;;;;;19.32;100.00;65011.28;5052043;28;20282;-56
2023/09/15 05:46:18;;;;;;;12.10;8.20;;;;;;;19.28;100.00;65002.88;5051976;28;20262;-54
2023/09/15 05:48:43;;;;;;;13.45;8.35;;;;;;;19.33;100.00;65009.84;5052157;28;20205;-55
2023/09/15 05:51:09;;;;;;;15.45;8.18;;;;;;;19.39;100.00;65019.59;5050895;28;20684;-56
2023/09/15 05:53:34;;;;;;;11.40;8.10;;;;;;;19.49;100.00;65024.97;5051518;28;20192;-55
2023/09/15 05:56:00;;;;;;;14.07;9.45;;;;;;;19.50;100.00;65029.19;5051860;28;20199;-56
2023/09/15 05:58:25;;;;;;;12.18;9.20;;;;;;;19.55;100.00;65032.16;5051701;28;20225;-56
2023/09/15 06:00:55;;;;;;;9.48;8.30;;;;;;;19.59;100.00;65036.56;5051709;28;20217;-55
2023/09/15 06:03:22;;;;;;;15.30;8.90;;;;;;;19.52;100.00;65028.28;5051528;28;20224;-54
2023/09/15 06:05:47;;;;;;;11.45;9.00;;;;;;;19.55;100.00;65034.16;5034065;28;20198;-55
2023/09/15 06:08:13;;;;;;;19.55;10.25;;;;;;;19.47;100.00;65025.31;5051217;28;20216;-57
2023/09/15 06:10:40;;;;;;;17.75;10.73;;;;;;;19.52;100.00;65030.84;5049867;28;20339;-54
2023/09/15 06:13:06;;;;;;;13.05;9.45;;;;;;;19.56;100.00;65035.81;5051016;28;20762;-55
2023/09/15 06:15:34;;;;;;;12.65;10.18;;;;;;;19.71;100.00;65051.81;5051090;28;20212;-54
2023/09/15 06:18:00;;;;;;;15.63;9.52;;;;;;;19.81;100.00;65063.44;5051006;28;20221;-55
2023/09/15 06:20:26;;;;;;;16.67;9.52;;;;;;;19.86;100.00;65068.38;5050893;28;20224;-54
2023/09/15 06:22:52;;;;;;;10.60;9.20;;;;;;;19.90;100.00;65075.91;5051487;28;20213;-56
2023/09/15 06:25:17;;;;;;;12.82;9.45;;;;;;;19.99;99.75;65080.75;5051333;28;20603;-55
2023/09/15 06:27:43;;;;;;;11.57;9.15;;;;;;;20.00;99.90;65081.28;5051301;28;20212;-55
2023/09/15 06:30:09;;;;;;;11.98;9.55;;;;;;;20.04;100.00;65086.25;5051198;28;20202;-54
2023/09/15 06:32:34;;;;;;;11.30;9.70;;;;;;;20.05;100.00;65089.38;5051178;28;20675;-55
2023/09/15 06:35:00;;;;;;;12.02;9.20;;;;;;;20.02;100.00;65086.06;5033281;28;20242;-55
2023/09/15 06:37:25;;;;;;;17.85;10.57;;;;;;;20.24;99.23;65110.38;5051167;28;20201;-55
2023/09/15 06:39:51;;;;;;;13.82;9.63;;;;;;;20.20;99.10;65105.41;5050944;28;20229;-55
2023/09/15 06:42:17;;;;;;;11.75;9.20;;;;;;;20.22;98.78;65108.16;5032934;28;20206;-55
2023/09/15 06:44:43;;;;;;;11.48;9.05;;;;;;;20.32;98.70;65121.78;5051035;28;20651;-57
2023/09/15 06:47:09;;;;;;;13.25;10.15;;;;;;;20.35;98.09;65125.09;5051581;28;20201;-54
2023/09/15 06:49:34;;;;;;;16.05;9.35;;;;;;;20.40;95.40;65125.50;5050754;28;20589;-59
2023/09/15 06:52:00;;;;;;;15.55;10.13;;;;;;;20.40;96.40;65125.50;5051129;28;20552;-55
2023/09/15 06:54:25;;;;;;;14.13;9.02;;;;;;;20.52;96.18;65140.78;5049574;28;20217;-55
2023/09/15 06:56:51;;;;;;;17.05;9.75;;;;;;;20.65;96.39;65155.13;5033128;28;20205;-54
2023/09/15 06:59:17;;;;;;;10.90;9.23;;;;;;;20.79;96.17;65173.16;5050859;28;20750;-55
2023/09/15 07:01:43;;;;;;;16.23;11.93;;;;;;;21.06;93.98;65200.50;5032715;28;20235;-54
2023/09/15 07:04:10;;;;;;;12.25;9.65;;;;;;;21.35;92.57;65232.56;5050330;28;20684;-55
2023/09/15 07:06:36;;;;;;;19.25;12.85;;;;;;;21.50;90.90;65246.59;5050324;28;20764;-55
2023/09/15 07:09:02;;;;;;;11.02;8.75;;;;;;;21.65;88.59;65265.72;5050598;28;20299;-54
2023/09/15 07:11:29;;;;;;;20.33;11.52;;;;;;;21.75;87.70;65276.78;5050538;28;20297;-54
2023/09/15 07:13:54;;;;;;;11.63;8.55;;;;;;;21.83;86.89;65284.56;5050418;28;20288;-54
2023/09/15 07:16:20;;;;;;;17.27;13.00;;;;;;;21.91;86.74;65293.97;5050328;28;20312;-56
2023/09/15 07:18:45;;;;;;;9.55;8.07;;;;;;;21.84;85.79;65285.66;5050494;28;20247;-55
2023/09/15 07:21:11;;;;;;;13.43;8.55;;;;;;;21.82;84.81;65283.47;5050412;28;20201;-58
2023/09/15 07:23:37;;;;;;;9.57;8.15;;;;;;;21.83;83.13;65282.56;5032821;28;20267;-53
2023/09/15 07:26:03;;;;;;;10.65;8.65;;;;;;;21.83;83.68;65282.00;5050479;28;20204;-55
2023/09/15 07:28:28;;;;;;;12.05;7.85;;;;;;;21.97;83.08;65297.50;5050160;28;20552;-55
2023/09/15 07:31:06;;;;;;;14.20;8.38;;;;;;;22.18;82.73;65320.75;5050370;28;20201;-54
2023/09/15 07:33:33;;;;;;;14.07;8.45;;;;;;;22.59;82.39;65368.72;5050496;28;20197;-54
2023/09/15 07:36:04;;;;;;;13.43;9.23;;;;;;;22.65;79.96;65372.22;5050502;28;20189;-54
2023/09/15 07:38:31;;;;;;;9.80;8.02;;;;;;;22.48;79.52;65356.53;5050273;28;20198;-55
2023/09/15 07:40:57;;;;;;;11.80;8.23;;;;;;;22.40;80.24;65345.63;5049993;28;20239;-54
2023/09/15 07:43:23;;;;;;;9.73;7.85;;;;;;;22.42;80.63;65347.31;5050037;28;20212;-53
2023/09/15 07:45:50;;;;;;;14.60;8.48;;;;;;;22.56;78.43;65360.78;5049915;28;20205;-58
2023/09/15 07:48:16;;;;;;;10.63;7.80;;;;;;;22.61;77.72;65368.34;5049788;28;20225;-54
2023/09/15 07:50:42;;;;;;;10.30;7.97;;;;;;;22.82;76.43;65391.06;5050166;28;20209;-55
2023/09/15 07:53:08;;;;;;;10.63;7.85;;;;;;;22.87;76.63;65396.59;5050078;28;20578;-55
2023/09/15 07:55:33;;;;;;;11.68;8.40;;;;;;;22.85;75.54;65392.34;5049885;28;20637;-60
2023/09/15 07:57:59;;;;;;;9.98;8.65;;;;;;;22.87;74.62;65396.59;5050017;28;20229;-55
2023/09/15 08:00:24;;;;;;;11.93;8.85;;;;;;;23.41;71.87;65455.88;5049747;28;20221;-54
2023/09/15 08:02:50;;;;;;;13.43;8.75;;;;;;;23.36;71.41;65453.47;5032207;28;20571;-55
2023/09/15 08:05:16;;;;;;;12.18;8.35;;;;;;;23.45;70.77;65460.88;5050073;28;20190;-58
2023/09/15 08:07:46;;;;;;;9.60;7.60;;;;;;;23.72;68.89;65490.22;5049843;28;20244;-54
2023/09/15 08:10:14;;;;;;;9.05;6.88;;;;;;;23.89;68.03;65509.63;5049805;28;20292;-55
2023/09/15 08:12:39;;;;;;;15.32;8.57;;;;;;;23.92;68.34;65512.41;5049595;28;20213;-55
2023/09/15 08:15:06;;;;;;;11.98;8.27;;;;;;;23.78;67.88;65499.44;5050929;28;20197;-55
2023/09/15 08:17:32;;;;;;;20.90;9.32;;;;;;;24.03;67.81;65525.19;5053554;28;20213;-54
2023/09/15 08:19:59;;;;;;;23.88;9.55;;;;;;;23.94;68.20;65514.59;5053201;28;20229;-55
2023/09/15 08:22:25;;;;;;;45.08;12.07;;;;;;;23.88;68.38;65511.09;5052955;28;20209;-55
2023/09/15 08:24:51;;;;;;;14.73;9.05;;;;;;;24.28;65.89;65554.38;5053070;28;20212;-55
2023/09/15 08:27:17;;;;;;;47.45;13.40;;;;;;;24.52;65.29;65578.97;5053197;28;20294;-54
2023/09/15 08:29:43;;;;;;;15.23;8.68;;;;;;;25.07;62.57;65638.88;5052942;28;20209;-54
2023/09/15 08:32:12;;;;;;;10.00;7.95;;;;;;;25.30;61.66;65661.81;5052860;28;20202;-55
2023/09/15 08:34:37;;;;;;;9.93;8.02;;;;;;;25.01;60.06;65632.78;5035570;28;20206;-53
2023/09/15 08:37:04;;;;;;;10.90;8.70;;;;;;;24.67;60.31;65595.59;5052850;28;20205;-54
2023/09/15 08:39:29;;;;;;;10.55;8.18;;;;;;;24.65;61.68;65592.81;5052468;28;20233;-53
2023/09/15 08:42:01;;;;;;;14.00;8.20;;;;;;;24.93;61.33;65624.44;5053083;28;20201;-55
2023/09/15 08:44:30;;;;;;;15.55;9.73;;;;;;;25.40;61.27;65678.09;5052569;28;20204;-54
2023/09/15 08:46:57;;;;;;;11.38;8.38;;;;;;;25.43;58.88;65678.84;5053085;28;20197;-55
2023/09/15 08:49:26;;;;;;;11.63;7.97;;;;;;;25.74;59.04;65710.69;5052675;28;20214;-54
2023/09/15 08:51:55;;;;;;;11.27;8.63;;;;;;;25.84;59.29;65724.38;5034881;28;20208;-55
2023/09/15 08:54:21;;;;;;;19.88;9.15;;;;;;;25.99;57.79;65741.03;5052781;28;20210;-55
2023/09/15 08:56:47;;;;;;;9.68;8.35;;;;;;;26.78;54.79;65830.31;5052630;28;20287;-55
2023/09/15 08:59:14;;;;;;;15.23;8.07;;;;;;;27.29;52.72;65879.25;5052457;28;20713;-54
2023/09/15 09:01:40;;;;;;;9.30;7.22;;;;;;;27.47;51.45;65904.47;5052372;28;20208;-53
2023/09/15 09:04:06;;;;;;;12.50;8.98;;;;;;;27.08;53.08;65858.47;5052579;28;20197;-54
2023/09/15 09:06:34;;;;;;;12.23;7.65;;;;;;;27.62;51.38;65917.97;5052721;28;20287;-53
2023/09/15 09:09:02;;;;;;;8.98;7.72;;;;;;;28.18;49.61;65983.44;5018137;28;20628;-56
2023/09/15 09:11:28;;;;;;;23.08;15.30;;;;;;;27.66;51.31;65925.56;5034718;28;20315;-55
2023/09/15 09:13:54;;;;;;;16.55;8.68;;;;;;;27.99;49.73;65961.75;5034399;28;20255;-54
2023/09/15 09:16:21;;;;;;;9.82;7.93;;;;;;;27.61;50.69;65919.47;5034308;28;20256;-53
2023/09/15 09:18:57;;;;;;;19.65;14.10;;;;;;;27.92;50.03;65954.50;5052754;28;20260;-55
2023/09/15 09:21:25;;;;;;;11.73;8.30;;;;;;;28.01;49.83;65961.94;5052200;28;20213;-54
2023/09/15 09:23:50;;;;;;;14.35;8.20;;;;;;;28.50;48.78;66015.91;5052183;28;20202;-54
2023/09/15 09:26:17;;;;;;;12.15;7.60;;;;;;;28.67;47.19;66034.84;5051997;28;20216;-54
2023/09/15 09:28:43;;;;;;;10.93;8.95;;;;;;;27.32;49.29;65888.31;5034194;28;20216;-54
2023/09/15 09:31:10;;;;;;;10.13;8.13;;;;;;;27.90;48.85;65951.69;5052259;28;20292;-56
2023/09/15 09:33:38;;;;;;;9.50;7.93;;;;;;;28.19;47.35;65984.56;5052198;28;20206;-54
2023/09/15 09:36:15;;;;;;;12.70;8.38;;;;;;;27.83;48.95;65947.09;5052278;28;20656;-53
2023/09/15 09:38:42;;;;;;;11.40;8.45;;;;;;;27.93;48.31;65953.03;5034103;28;20192;-55
2023/09/15 09:41:11;;;;;;;16.30;9.25;;;;;;;28.30;48.57;65996.22;5051985;28;20214;-55
2023/09/15 09:43:39;;;;;;;14.15;8.88;;;;;;;27.82;48.48;65940.22;5051689;28;20211;-54
2023/09/15 09:46:06;;;;;;;15.60;8.43;;;;;;;27.82;48.03;65942.81;5050903;28;20738;-54
2023/09/15 09:48:34;;;;;;;11.02;7.90;;;;;;;28.80;47.36;66051.34;5051859;28;20205;-54
2023/09/15 09:51:01;;;;;;;19.58;8.07;;;;;;;29.13;45.28;66084.94;5051918;28;20197;-56
2023/09/15 09:53:32;;;;;;;12.90;8.48;;;;;;;28.57;46.14;66023.16;5051990;28;20292;-53
2023/09/15 09:56:03;;;;;;;10.10;7.53;;;;;;;28.87;44.34;66053.94;5052042;28;20255;-53
2023/09/15 09:58:28;;;;;;;14.13;9.65;;;;;;;29.49;43.42;66125.59;5051959;28;20251;-51
2023/09/15 10:00:54;;;;;;;13.65;8.43;;;;;;;29.81;43.89;66163.88;5051701;28;20630;-53
2023/09/15 10:03:23;;;;;;;8.35;7.55;;;;;;;30.07;42.94;66189.13;5051586;28;20194;-54
2023/09/15 10:05:49;;;;;;;10.38;8.57;;;;;;;29.65;43.47;66146.03;5051785;28;20229;-53
2023/09/15 10:08:15;;;;;;;10.23;7.40;;;;;;;28.65;44.56;66032.06;5051376;28;20288;-54
2023/09/15 10:10:43;;;;;;;17.02;10.73;;;;;;;28.21;46.64;65984.19;5033830;28;20213;-54
2023/09/15 10:13:17;;;;;;;14.45;10.55;;;;;;;28.14;46.41;65975.84;5051643;28;20201;-53
2023/09/15 10:15:43;;;;;;;10.02;8.50;;;;;;;29.10;44.78;66084.19;5051523;28;20256;-53
2023/09/15 10:18:14;;;;;;;11.15;8.00;;;;;;;28.34;45.09;65995.50;5051273;28;20201;-52
2023/09/15 10:20:45;;;;;;;9.05;8.15;;;;;;;28.69;45.26;66036.50;5051294;28;20691;-52
2023/09/15 10:23:14;;;;;;;9.98;7.78;;;;;;;29.20;43.93;66092.75;5051401;28;20201;-52
2023/09/15 10:25:48;;;;;;;13.38;7.43;;;;;;;30.10;43.16;66195.09;5051228;28;20208;-53
2023/09/15 10:28:14;;;;;;;11.30;8.27;;;;;;;28.78;44.53;66049.13;5051227;28;20309;-53
2023/09/15 10:30:40;;;;;;;11.40;8.18;;;;;;;28.18;45.80;65983.44;5051444;28;20193;-54
2023/09/15 10:33:07;;;;;;;7.68;6.88;;;;;;;27.95;45.92;65954.69;5051156;28;20213;-55
2023/09/15 10:35:33;;;;;;;8.77;7.75;;;;;;;28.96;44.79;66067.13;5016740;28;20643;-53
2023/09/15 10:38:03;;;;;;;12.65;7.97;;;;;;;30.05;43.29;66186.91;5050309;28;20209;-53
2023/09/15 10:40:49;;;;;;;11.45;7.32;;;;;;;29.73;42.66;66151.81;5050946;28;20213;-53
2023/09/15 10:43:17;;;;;;;9.65;7.47;;;;;;;29.50;42.22;66126.16;5033085;28;20212;-52
2023/09/15 10:46:12;;;;;;;8.98;6.65;;;;;;;28.75;43.15;66045.78;5051122;28;20197;-54
2023/09/15 10:48:48;;;;;;;8.52;7.00;;;;;;;29.89;41.11;66171.66;5016374;28;20294;-53
2023/09/15 10:51:17;;;;;;;7.93;7.07;;;;;;;30.18;40.37;66201.94;5050918;28;20272;-53
2023/09/15 10:53:49;;;;;;;9.75;7.65;;;;;;;29.72;41.08;66153.84;5050765;28;20219;-53
2023/09/15 10:56:17;;;;;;;10.25;7.20;;;;;;;30.44;40.61;66230.41;5050777;28;20278;-52
2023/09/15 10:58:44;;;;;;;8.40;7.32;;;;;;;30.61;40.48;66247.28;5050674;28;20795;-53
2023/09/15 11:01:10;;;;;;;15.73;8.43;;;;;;;30.04;40.95;66185.78;5050561;28;20245;-53
2023/09/15 11:03:37;;;;;;;23.30;9.98;;;;;;;30.10;41.55;66193.03;5050447;28;20706;-53
2023/09/15 11:06:08;;;;;;;12.35;7.38;;;;;;;30.51;40.62;66238.19;5032960;28;20242;-53
2023/09/15 11:08:35;;;;;;;10.57;7.32;;;;;;;30.94;40.32;66283.56;5050680;28;20227;-53
2023/09/15 11:11:08;;;;;;;7.63;6.80;;;;;;;31.15;40.82;66306.97;5050707;28;20182;-53
2023/09/15 11:13:35;;;;;;;12.35;8.77;;;;;;;30.93;39.30;66287.09;5050632;28;20201;-52
2023/09/15 11:16:01;;;;;;;18.67;8.68;;;;;;;31.13;39.15;66304.19;5050670;28;20198;-53
2023/09/15 11:18:27;;;;;;;8.60;7.70;;;;;;;31.33;39.67;66332.25;5050691;28;20208;-53
2023/09/15 11:20:54;;;;;;;16.98;11.00;;;;;;;31.13;39.28;66304.19;5032564;28;20649;-56
2023/09/15 11:23:22;;;;;;;14.95;8.77;;;;;;;30.53;40.85;66237.81;5032774;28;20214;-53
2023/09/15 11:26:07;;;;;;;18.35;12.40;;;;;;;29.62;41.75;66139.53;5050452;28;20581;-54